sensor_id;sensor_type;location;lat;lon;timestamp;temperature;humidity
4518;DHT22;2271;49.464;11.070;2022-11-11T00:00:28;8.90;99.90
4518;DHT22;2271;49.464;11.070;2022-11-11T00:02:57;8.90;99.90
4518;DHT22;2271;49.464;11.070;2022-11-11T00:05:23;8.90;99.90
4518;DHT22;2271;49.464;11.070;2022-11-11T00:07:51;8.80;99.90
4518;DHT22;2271;49.464;11.070;2022-11-11T00:10:17;8.80;99.90
4518;DHT22;2271;49.464;11.070;2022-11-11T00:12:43;8.80;99.90
4518;DHT22;2271;49.464;11.070;2022-11-11T00:15:09;8.80;99.90
4518;DHT22;2271;49.464;11.070;2022-11-11T00:17:34;8.70;99.90
4518;DHT22;2271;49.464;11.070;2022-11-11T00:20:19;8.60;99.90
4518;DHT22;2271;49.464;11.070;2022-11-11T00:23:03;8.60;99.90
4518;DHT22;2271;49.464;11.070;2022-11-11T00:25:53;8.50;99.90
4518;DHT22;2271;49.464;11.070;2022-11-11T00:28:19;8.40;99.90
4518;DHT22;2271;49.464;11.070;2022-11-11T00:30:45;8.40;99.90
4518;DHT22;2271;49.464;11.070;2022-11-11T00:33:11;8.40;99.90
4518;DHT22;2271;49.464;11.070;2022-11-11T00:35:36;8.40;99.90
4518;DHT22;2271;49.464;11.070;2022-11-11T00:38:20;8.30;99.90
4518;DHT22;2271;49.464;11.070;2022-11-11T00:41:05;8.30;99.90
4518;DHT22;2271;49.464;11.070;2022-11-11T00:43:30;8.40;99.90
4518;DHT22;2271;49.464;11.070;2022-11-11T00:45:56;8.40;99.90
4518;DHT22;2271;49.464;11.070;2022-11-11T00:48:42;8.30;99.90
4518;DHT22;2271;49.464;11.070;2022-11-11T00:51:26;8.30;99.90
4518;DHT22;2271;49.464;11.070;2022-11-11T00:53:52;8.40;99.90
4518;DHT22;2271;49.464;11.070;2022-11-11T00:56:17;8.40;99.90
4518;DHT22;2271;49.464;11.070;2022-11-11T00:58:43;8.40;99.90
4518;DHT22;2271;49.464;11.070;2022-11-11T01:01:09;8.30;99.90
4518;DHT22;2271;49.464;11.070;2022-11-11T01:03:34;8.30;99.90
4518;DHT22;2271;49.464;11.070;2022-11-11T01:06:01;8.30;99.90
4518;DHT22;2271;49.464;11.070;2022-11-11T01:08:27;8.20;99.90
4518;DHT22;2271;49.464;11.070;2022-11-11T01:10:53;8.20;99.90
4518;DHT22;2271;49.464;11.070;2022-11-11T01:13:26;8.20;99.90
4518;DHT22;2271;49.464;11.070;2022-11-11T01:16:00;8.20;99.90
4518;DHT22;2271;49.464;11.070;2022-11-11T01:18:26;8.30;99.90
4518;DHT22;2271;49.464;11.070;2022-11-11T01:23:25;8.30;99.90
4518;DHT22;2271;49.464;11.070;2022-11-11T01:25:51;8.30;99.90
4518;DHT22;2271;49.464;11.070;2022-11-11T01:28:18;8.30;99.90
4518;DHT22;2271;49.464;11.070;2022-11-11T01:30:43;8.40;99.90
4518;DHT22;2271;49.464;11.070;2022-11-11T01:33:10;8.40;99.90
4518;DHT22;2271;49.464;11.070;2022-11-11T01:35:40;8.40;99.90
4518;DHT22;2271;49.464;11.070;2022-11-11T01:38:06;8.40;99.90
4518;DHT22;2271;49.464;11.070;2022-11-11T01:40:40;8.40;99.90
4518;DHT22;2271;49.464;11.070;2022-11-11T01:45:59;8.30;99.90
4518;DHT22;2271;49.464;11.070;2022-11-11T01:48:42;8.30;99.90
4518;DHT22;2271;49.464;11.070;2022-11-11T01:51:34;8.30;99.90
4518;DHT22;2271;49.464;11.070;2022-11-11T01:54:04;8.30;99.90
4518;DHT22;2271;49.464;11.070;2022-11-11T01:56:31;8.20;99.90
4518;DHT22;2271;49.464;11.070;2022-11-11T01:59:02;8.30;99.90
4518;DHT22;2271;49.464;11.070;2022-11-11T02:01:30;8.30;99.90
4518;DHT22;2271;49.464;11.070;2022-11-11T02:03:57;8.20;99.90
4518;DHT22;2271;49.464;11.070;2022-11-11T02:10:18;8.20;99.90
4518;DHT22;2271;49.464;11.070;2022-11-11T02:12:45;8.10;99.90
4518;DHT22;2271;49.464;11.070;2022-11-11T02:15:29;8.10;99.90
4518;DHT22;2271;49.464;11.070;2022-11-11T02:17:54;8.10;99.90
4518;DHT22;2271;49.464;11.070;2022-11-11T02:20:23;8.10;99.90
4518;DHT22;2271;49.464;11.070;2022-11-11T02:23:02;8.00;99.90
4518;DHT22;2271;49.464;11.070;2022-11-11T02:25:31;8.00;99.90
4518;DHT22;2271;49.464;11.070;2022-11-11T02:28:01;8.00;99.90
4518;DHT22;2271;49.464;11.070;2022-11-11T02:30:28;8.00;99.90
4518;DHT22;2271;49.464;11.070;2022-11-11T02:32:54;8.00;99.90
4518;DHT22;2271;49.464;11.070;2022-11-11T02:35:29;8.00;99.90
4518;DHT22;2271;49.464;11.070;2022-11-11T02:37:54;8.00;99.90
4518;DHT22;2271;49.464;11.070;2022-11-11T02:40:24;7.90;99.90
4518;DHT22;2271;49.464;11.070;2022-11-11T02:42:51;7.90;99.90
4518;DHT22;2271;49.464;11.070;2022-11-11T02:45:16;7.90;99.90
4518;DHT22;2271;49.464;11.070;2022-11-11T02:47:42;8.00;99.90
4518;DHT22;2271;49.464;11.070;2022-11-11T02:50:08;7.90;99.90
4518;DHT22;2271;49.464;11.070;2022-11-11T02:52:34;7.90;99.90
4518;DHT22;2271;49.464;11.070;2022-11-11T02:55:00;7.90;99.90
4518;DHT22;2271;49.464;11.070;2022-11-11T02:57:25;7.90;99.90
4518;DHT22;2271;49.464;11.070;2022-11-11T02:59:51;7.90;99.90
4518;DHT22;2271;49.464;11.070;2022-11-11T03:02:17;7.90;99.90
4518;DHT22;2271;49.464;11.070;2022-11-11T03:04:42;7.90;99.90
4518;DHT22;2271;49.464;11.070;2022-11-11T03:07:08;7.90;99.90
4518;DHT22;2271;49.464;11.070;2022-11-11T03:09:34;7.90;99.90
4518;DHT22;2271;49.464;11.070;2022-11-11T03:11:59;7.90;99.90
4518;DHT22;2271;49.464;11.070;2022-11-11T03:14:25;7.80;99.90
4518;DHT22;2271;49.464;11.070;2022-11-11T03:16:51;7.80;99.90
4518;DHT22;2271;49.464;11.070;2022-11-11T03:19:35;7.80;99.90
4518;DHT22;2271;49.464;11.070;2022-11-11T03:22:01;7.80;99.90
4518;DHT22;2271;49.464;11.070;2022-11-11T03:24:28;7.80;99.90
4518;DHT22;2271;49.464;11.070;2022-11-11T03:27:14;7.80;99.90
4518;DHT22;2271;49.464;11.070;2022-11-11T03:29:40;7.80;99.90
4518;DHT22;2271;49.464;11.070;2022-11-11T03:32:07;7.70;99.90
4518;DHT22;2271;49.464;11.070;2022-11-11T03:34:33;7.70;99.90
4518;DHT22;2271;49.464;11.070;2022-11-11T03:36:59;7.70;99.90
4518;DHT22;2271;49.464;11.070;2022-11-11T03:39:43;7.70;99.90
4518;DHT22;2271;49.464;11.070;2022-11-11T03:42:08;7.70;99.90
4518;DHT22;2271;49.464;11.070;2022-11-11T03:44:34;7.70;99.90
4518;DHT22;2271;49.464;11.070;2022-11-11T03:47:00;7.70;99.90
4518;DHT22;2271;49.464;11.070;2022-11-11T03:49:25;7.70;99.90
4518;DHT22;2271;49.464;11.070;2022-11-11T03:51:51;7.70;99.90
4518;DHT22;2271;49.464;11.070;2022-11-11T03:54:16;7.60;99.90
4518;DHT22;2271;49.464;11.070;2022-11-11T03:56:42;7.50;99.90
4518;DHT22;2271;49.464;11.070;2022-11-11T03:59:08;7.60;99.90
4518;DHT22;2271;49.464;11.070;2022-11-11T04:01:33;7.50;99.90
4518;DHT22;2271;49.464;11.070;2022-11-11T04:04:17;7.50;99.90
4518;DHT22;2271;49.464;11.070;2022-11-11T04:07:01;7.50;99.90
4518;DHT22;2271;49.464;11.070;2022-11-11T04:09:45;7.50;99.90
4518;DHT22;2271;49.464;11.070;2022-11-11T04:12:30;7.50;99.90
4518;DHT22;2271;49.464;11.070;2022-11-11T04:15:17;7.50;99.90
4518;DHT22;2271;49.464;11.070;2022-11-11T04:18:01;7.40;99.90
4518;DHT22;2271;49.464;11.070;2022-11-11T04:20:27;7.40;99.90
4518;DHT22;2271;49.464;11.070;2022-11-11T04:23:11;7.30;99.90
4518;DHT22;2271;49.464;11.070;2022-11-11T04:25:36;7.30;99.90
4518;DHT22;2271;49.464;11.070;2022-11-11T04:28:14;7.30;99.90
4518;DHT22;2271;49.464;11.070;2022-11-11T04:30:59;7.40;99.90
4518;DHT22;2271;49.464;11.070;2022-11-11T04:33:24;7.40;99.90
4518;DHT22;2271;49.464;11.070;2022-11-11T04:35:50;7.40;99.90
4518;DHT22;2271;49.464;11.070;2022-11-11T04:38:16;7.40;99.90
4518;DHT22;2271;49.464;11.070;2022-11-11T04:41:00;7.30;99.90
4518;DHT22;2271;49.464;11.070;2022-11-11T04:43:30;7.30;99.90
4518;DHT22;2271;49.464;11.070;2022-11-11T04:45:59;7.30;99.90
4518;DHT22;2271;49.464;11.070;2022-11-11T04:48:25;7.30;99.90
4518;DHT22;2271;49.464;11.070;2022-11-11T04:50:51;7.30;99.90
4518;DHT22;2271;49.464;11.070;2022-11-11T04:53:18;7.20;99.90
4518;DHT22;2271;49.464;11.070;2022-11-11T04:55:44;7.20;99.90
4518;DHT22;2271;49.464;11.070;2022-11-11T04:58:33;7.20;99.90
4518;DHT22;2271;49.464;11.070;2022-11-11T05:01:00;7.20;99.90
4518;DHT22;2271;49.464;11.070;2022-11-11T05:03:26;7.20;99.90
4518;DHT22;2271;49.464;11.070;2022-11-11T05:08:41;7.20;99.90
4518;DHT22;2271;49.464;11.070;2022-11-11T05:11:23;7.20;99.90
4518;DHT22;2271;49.464;11.070;2022-11-11T05:13:49;7.40;99.90
4518;DHT22;2271;49.464;11.070;2022-11-11T05:16:38;7.40;99.90
4518;DHT22;2271;49.464;11.070;2022-11-11T05:19:23;7.40;99.90
4518;DHT22;2271;49.464;11.070;2022-11-11T05:24:48;7.40;99.90
4518;DHT22;2271;49.464;11.070;2022-11-11T05:27:33;7.30;99.90
4518;DHT22;2271;49.464;11.070;2022-11-11T05:29:58;7.20;99.90
4518;DHT22;2271;49.464;11.070;2022-11-11T05:32:24;7.20;99.90
4518;DHT22;2271;49.464;11.070;2022-11-11T05:34:50;7.20;99.90
4518;DHT22;2271;49.464;11.070;2022-11-11T05:37:17;7.10;99.90
4518;DHT22;2271;49.464;11.070;2022-11-11T05:39:42;7.20;99.90
4518;DHT22;2271;49.464;11.070;2022-11-11T05:42:08;7.30;99.90
4518;DHT22;2271;49.464;11.070;2022-11-11T05:44:34;7.30;99.90
4518;DHT22;2271;49.464;11.070;2022-11-11T05:47:00;7.30;99.90
4518;DHT22;2271;49.464;11.070;2022-11-11T05:49:26;7.30;99.90
4518;DHT22;2271;49.464;11.070;2022-11-11T05:51:52;7.30;99.90
4518;DHT22;2271;49.464;11.070;2022-11-11T05:54:18;7.40;99.90
4518;DHT22;2271;49.464;11.070;2022-11-11T05:56:43;7.30;99.90
4518;DHT22;2271;49.464;11.070;2022-11-11T05:59:09;7.30;99.90
4518;DHT22;2271;49.464;11.070;2022-11-11T06:01:35;7.20;99.90
4518;DHT22;2271;49.464;11.070;2022-11-11T06:04:02;7.20;99.90
4518;DHT22;2271;49.464;11.070;2022-11-11T06:06:28;7.20;99.90
4518;DHT22;2271;49.464;11.070;2022-11-11T06:08:54;7.20;99.90
4518;DHT22;2271;49.464;11.070;2022-11-11T06:11:20;7.20;99.90
4518;DHT22;2271;49.464;11.070;2022-11-11T06:13:45;7.20;99.90
4518;DHT22;2271;49.464;11.070;2022-11-11T06:16:11;7.30;99.90
4518;DHT22;2271;49.464;11.070;2022-11-11T06:18:36;7.20;99.90
4518;DHT22;2271;49.464;11.070;2022-11-11T06:21:02;7.20;99.90
4518;DHT22;2271;49.464;11.070;2022-11-11T06:23:29;6.90;99.90
4518;DHT22;2271;49.464;11.070;2022-11-11T06:25:55;6.80;99.90
4518;DHT22;2271;49.464;11.070;2022-11-11T06:31:12;6.80;99.90
4518;DHT22;2271;49.464;11.070;2022-11-11T06:33:38;6.80;99.90
4518;DHT22;2271;49.464;11.070;2022-11-11T06:36:05;6.70;99.90
4518;DHT22;2271;49.464;11.070;2022-11-11T06:38:31;6.80;99.90
4518;DHT22;2271;49.464;11.070;2022-11-11T06:40:57;6.80;99.90
4518;DHT22;2271;49.464;11.070;2022-11-11T06:43:23;6.80;99.90
4518;DHT22;2271;49.464;11.070;2022-11-11T06:45:50;6.80;99.90
4518;DHT22;2271;49.464;11.070;2022-11-11T06:48:15;6.90;99.90
4518;DHT22;2271;49.464;11.070;2022-11-11T06:50:41;6.90;99.90
4518;DHT22;2271;49.464;11.070;2022-11-11T06:53:12;6.90;99.90
4518;DHT22;2271;49.464;11.070;2022-11-11T06:55:38;7.00;99.90
4518;DHT22;2271;49.464;11.070;2022-11-11T06:58:05;7.10;99.90
4518;DHT22;2271;49.464;11.070;2022-11-11T07:00:31;7.20;99.90
4518;DHT22;2271;49.464;11.070;2022-11-11T07:02:57;7.20;99.90
4518;DHT22;2271;49.464;11.070;2022-11-11T07:05:23;7.30;99.90
4518;DHT22;2271;49.464;11.070;2022-11-11T07:07:48;7.30;99.90
4518;DHT22;2271;49.464;11.070;2022-11-11T07:10:14;7.30;99.90
4518;DHT22;2271;49.464;11.070;2022-11-11T07:12:42;7.30;99.90
4518;DHT22;2271;49.464;11.070;2022-11-11T07:15:08;7.40;99.90
4518;DHT22;2271;49.464;11.070;2022-11-11T07:17:34;7.50;99.90
4518;DHT22;2271;49.464;11.070;2022-11-11T07:20:00;7.50;99.90
4518;DHT22;2271;49.464;11.070;2022-11-11T07:22:25;7.50;99.90
4518;DHT22;2271;49.464;11.070;2022-11-11T07:24:51;7.50;99.90
4518;DHT22;2271;49.464;11.070;2022-11-11T07:27:16;7.50;99.90
4518;DHT22;2271;49.464;11.070;2022-11-11T07:29:42;7.50;99.90
4518;DHT22;2271;49.464;11.070;2022-11-11T07:32:08;7.50;99.90
4518;DHT22;2271;49.464;11.070;2022-11-11T07:34:33;7.60;99.90
4518;DHT22;2271;49.464;11.070;2022-11-11T07:36:59;7.60;99.90
4518;DHT22;2271;49.464;11.070;2022-11-11T07:39:24;7.60;99.90
4518;DHT22;2271;49.464;11.070;2022-11-11T07:41:50;7.60;99.90
4518;DHT22;2271;49.464;11.070;2022-11-11T07:44:16;7.60;99.90
4518;DHT22;2271;49.464;11.070;2022-11-11T07:46:41;7.60;99.90
4518;DHT22;2271;49.464;11.070;2022-11-11T07:49:07;7.70;99.90
4518;DHT22;2271;49.464;11.070;2022-11-11T07:51:32;7.80;99.90
4518;DHT22;2271;49.464;11.070;2022-11-11T07:53:58;7.90;99.90
4518;DHT22;2271;49.464;11.070;2022-11-11T07:56:24;7.90;99.90
4518;DHT22;2271;49.464;11.070;2022-11-11T07:58:49;8.00;99.90
4518;DHT22;2271;49.464;11.070;2022-11-11T08:01:15;8.10;99.90
4518;DHT22;2271;49.464;11.070;2022-11-11T08:03:41;8.20;99.90
4518;DHT22;2271;49.464;11.070;2022-11-11T08:06:18;8.10;99.90
4518;DHT22;2271;49.464;11.070;2022-11-11T08:08:43;8.00;99.90
4518;DHT22;2271;49.464;11.070;2022-11-11T08:11:09;8.00;99.90
4518;DHT22;2271;49.464;11.070;2022-11-11T08:13:35;8.10;99.90
4518;DHT22;2271;49.464;11.070;2022-11-11T08:16:09;8.20;99.90
4518;DHT22;2271;49.464;11.070;2022-11-11T08:18:35;8.20;99.90
4518;DHT22;2271;49.464;11.070;2022-11-11T08:21:01;8.20;99.90
4518;DHT22;2271;49.464;11.070;2022-11-11T08:23:27;8.20;99.90
4518;DHT22;2271;49.464;11.070;2022-11-11T08:25:59;8.30;99.90
4518;DHT22;2271;49.464;11.070;2022-11-11T08:28:29;8.30;99.90
4518;DHT22;2271;49.464;11.070;2022-11-11T08:30:58;8.30;99.90
4518;DHT22;2271;49.464;11.070;2022-11-11T08:33:24;8.20;99.90
4518;DHT22;2271;49.464;11.070;2022-11-11T08:35:50;8.20;99.90
4518;DHT22;2271;49.464;11.070;2022-11-11T08:38:19;8.30;99.90
4518;DHT22;2271;49.464;11.070;2022-11-11T08:40:44;8.50;99.90
4518;DHT22;2271;49.464;11.070;2022-11-11T08:43:10;8.60;99.90
4518;DHT22;2271;49.464;11.070;2022-11-11T08:45:36;8.70;99.90
4518;DHT22;2271;49.464;11.070;2022-11-11T08:48:02;8.80;99.90
4518;DHT22;2271;49.464;11.070;2022-11-11T08:50:28;8.90;99.90
4518;DHT22;2271;49.464;11.070;2022-11-11T08:52:53;8.90;99.90
4518;DHT22;2271;49.464;11.070;2022-11-11T08:55:19;9.00;99.90
4518;DHT22;2271;49.464;11.070;2022-11-11T08:57:45;9.10;99.90
4518;DHT22;2271;49.464;11.070;2022-11-11T09:00:11;9.10;99.90
4518;DHT22;2271;49.464;11.070;2022-11-11T09:02:38;9.20;99.90
4518;DHT22;2271;49.464;11.070;2022-11-11T09:05:04;9.30;99.90
4518;DHT22;2271;49.464;11.070;2022-11-11T09:07:31;9.30;99.90
4518;DHT22;2271;49.464;11.070;2022-11-11T09:09:57;9.40;99.90
4518;DHT22;2271;49.464;11.070;2022-11-11T09:12:23;9.40;99.90
4518;DHT22;2271;49.464;11.070;2022-11-11T09:14:48;9.40;99.90
4518;DHT22;2271;49.464;11.070;2022-11-11T09:17:15;9.50;99.90
4518;DHT22;2271;49.464;11.070;2022-11-11T09:19:41;9.60;99.90
4518;DHT22;2271;49.464;11.070;2022-11-11T09:22:06;9.60;99.90
4518;DHT22;2271;49.464;11.070;2022-11-11T09:24:32;9.70;99.90
4518;DHT22;2271;49.464;11.070;2022-11-11T09:26:58;9.70;99.90
4518;DHT22;2271;49.464;11.070;2022-11-11T09:29:23;9.80;99.90
4518;DHT22;2271;49.464;11.070;2022-11-11T09:31:49;9.70;99.90
4518;DHT22;2271;49.464;11.070;2022-11-11T09:34:15;9.90;99.90
4518;DHT22;2271;49.464;11.070;2022-11-11T09:36:41;9.90;99.90
4518;DHT22;2271;49.464;11.070;2022-11-11T09:39:07;9.90;99.90
4518;DHT22;2271;49.464;11.070;2022-11-11T09:41:39;10.00;99.90
4518;DHT22;2271;49.464;11.070;2022-11-11T09:44:30;10.00;99.90
4518;DHT22;2271;49.464;11.070;2022-11-11T09:47:20;10.10;99.90
4518;DHT22;2271;49.464;11.070;2022-11-11T09:50:01;10.10;99.90
4518;DHT22;2271;49.464;11.070;2022-11-11T09:52:46;10.20;99.90
4518;DHT22;2271;49.464;11.070;2022-11-11T09:55:24;10.20;99.90
4518;DHT22;2271;49.464;11.070;2022-11-11T09:57:55;10.20;99.90
4518;DHT22;2271;49.464;11.070;2022-11-11T10:00:35;10.30;99.90
4518;DHT22;2271;49.464;11.070;2022-11-11T10:03:16;10.40;99.90
4518;DHT22;2271;49.464;11.070;2022-11-11T10:06:01;10.40;99.90
4518;DHT22;2271;49.464;11.070;2022-11-11T10:09:16;10.40;99.90
4518;DHT22;2271;49.464;11.070;2022-11-11T10:14:00;10.50;99.90
4518;DHT22;2271;49.464;11.070;2022-11-11T10:21:54;10.70;99.90
4518;DHT22;2271;49.464;11.070;2022-11-11T10:24:28;10.80;99.90
4518;DHT22;2271;49.464;11.070;2022-11-11T10:26:55;10.80;99.90
4518;DHT22;2271;49.464;11.070;2022-11-11T10:29:25;10.80;99.90
4518;DHT22;2271;49.464;11.070;2022-11-11T10:32:08;10.90;99.90
4518;DHT22;2271;49.464;11.070;2022-11-11T10:34:36;11.00;99.90
4518;DHT22;2271;49.464;11.070;2022-11-11T10:37:02;11.00;99.90
4518;DHT22;2271;49.464;11.070;2022-11-11T10:39:59;11.10;99.90
4518;DHT22;2271;49.464;11.070;2022-11-11T10:42:26;11.10;99.90
4518;DHT22;2271;49.464;11.070;2022-11-11T10:44:57;11.20;99.90
4518;DHT22;2271;49.464;11.070;2022-11-11T10:47:44;11.20;99.90
4518;DHT22;2271;49.464;11.070;2022-11-11T10:50:15;11.30;99.90
4518;DHT22;2271;49.464;11.070;2022-11-11T10:52:53;11.40;99.90
4518;DHT22;2271;49.464;11.070;2022-11-11T10:55:24;11.50;99.90
4518;DHT22;2271;49.464;11.070;2022-11-11T11:00:49;11.60;99.90
4518;DHT22;2271;49.464;11.070;2022-11-11T11:03:24;11.60;99.90
4518;DHT22;2271;49.464;11.070;2022-11-11T11:05:57;11.60;99.90
4518;DHT22;2271;49.464;11.070;2022-11-11T11:08:29;11.70;99.90
4518;DHT22;2271;49.464;11.070;2022-11-11T11:11:01;11.70;99.90
4518;DHT22;2271;49.464;11.070;2022-11-11T11:13:39;11.80;99.90
4518;DHT22;2271;49.464;11.070;2022-11-11T11:16:13;11.80;99.90
4518;DHT22;2271;49.464;11.070;2022-11-11T11:18:41;11.80;99.90
4518;DHT22;2271;49.464;11.070;2022-11-11T11:21:07;11.80;99.90
4518;DHT22;2271;49.464;11.070;2022-11-11T11:23:39;11.80;99.90
4518;DHT22;2271;49.464;11.070;2022-11-11T11:26:05;11.90;99.90
4518;DHT22;2271;49.464;11.070;2022-11-11T11:28:32;12.00;99.90
4518;DHT22;2271;49.464;11.070;2022-11-11T11:31:04;12.10;99.90
4518;DHT22;2271;49.464;11.070;2022-11-11T11:33:51;12.10;99.90
4518;DHT22;2271;49.464;11.070;2022-11-11T11:36:18;12.10;99.90
4518;DHT22;2271;49.464;11.070;2022-11-11T11:38:45;12.30;99.90
4518;DHT22;2271;49.464;11.070;2022-11-11T11:41:12;12.30;99.90
4518;DHT22;2271;49.464;11.070;2022-11-11T11:43:41;12.30;99.90
4518;DHT22;2271;49.464;11.070;2022-11-11T11:46:34;12.40;99.90
4518;DHT22;2271;49.464;11.070;2022-11-11T11:49:18;12.50;99.90
4518;DHT22;2271;49.464;11.070;2022-11-11T11:52:04;12.50;99.90
4518;DHT22;2271;49.464;11.070;2022-11-11T12:00:23;12.70;99.90
4518;DHT22;2271;49.464;11.070;2022-11-11T12:05:48;12.80;99.90
4518;DHT22;2271;49.464;11.070;2022-11-11T12:16:43;12.90;99.90
4518;DHT22;2271;49.464;11.070;2022-11-11T12:19:34;12.90;99.90
4518;DHT22;2271;49.464;11.070;2022-11-11T12:22:30;12.80;99.90
4518;DHT22;2271;49.464;11.070;2022-11-11T12:28:33;12.80;99.90
4518;DHT22;2271;49.464;11.070;2022-11-11T12:30:41;12.80;99.90
4518;DHT22;2271;49.464;11.070;2022-11-11T12:43:56;12.90;99.90
4518;DHT22;2271;49.464;11.070;2022-11-11T13:05:26;13.40;99.90
4518;DHT22;2271;49.464;11.070;2022-11-11T13:15:47;13.40;99.90
4518;DHT22;2271;49.464;11.070;2022-11-11T13:21:21;13.40;99.90
4518;DHT22;2271;49.464;11.070;2022-11-11T13:23:48;13.40;99.90
4518;DHT22;2271;49.464;11.070;2022-11-11T13:26:30;13.30;99.90
4518;DHT22;2271;49.464;11.070;2022-11-11T13:31:54;13.40;99.90
4518;DHT22;2271;49.464;11.070;2022-11-11T13:34:20;13.40;99.90
4518;DHT22;2271;49.464;11.070;2022-11-11T13:36:52;13.50;99.90
4518;DHT22;2271;49.464;11.070;2022-11-11T13:39:24;13.50;99.90
4518;DHT22;2271;49.464;11.070;2022-11-11T13:41:53;13.60;99.90
4518;DHT22;2271;49.464;11.070;2022-11-11T13:47:17;13.50;99.90
4518;DHT22;2271;49.464;11.070;2022-11-11T13:49:56;13.60;99.90
4518;DHT22;2271;49.464;11.070;2022-11-11T13:52:26;13.60;99.90
4518;DHT22;2271;49.464;11.070;2022-11-11T13:55:19;13.60;99.90
4518;DHT22;2271;49.464;11.070;2022-11-11T13:57:50;13.60;99.90
4518;DHT22;2271;49.464;11.070;2022-11-11T14:02:42;13.50;99.90
4518;DHT22;2271;49.464;11.070;2022-11-11T14:07:46;13.50;99.90
4518;DHT22;2271;49.464;11.070;2022-11-11T14:15:34;13.40;99.90
4518;DHT22;2271;49.464;11.070;2022-11-11T14:18:06;13.40;99.90
4518;DHT22;2271;49.464;11.070;2022-11-11T14:20:37;13.40;99.90
4518;DHT22;2271;49.464;11.070;2022-11-11T14:28:32;13.30;99.90
4518;DHT22;2271;49.464;11.070;2022-11-11T14:33:59;13.30;99.90
4518;DHT22;2271;49.464;11.070;2022-11-11T14:36:37;13.30;99.90
4518;DHT22;2271;49.464;11.070;2022-11-11T14:55:03;13.10;99.90
4518;DHT22;2271;49.464;11.070;2022-11-11T14:57:39;13.00;99.90
4518;DHT22;2271;49.464;11.070;2022-11-11T15:00:19;13.00;99.90
4518;DHT22;2271;49.464;11.070;2022-11-11T15:03:12;12.90;99.90
4518;DHT22;2271;49.464;11.070;2022-11-11T15:08:27;12.80;99.90
4518;DHT22;2271;49.464;11.070;2022-11-11T15:11:32;12.80;99.90
4518;DHT22;2271;49.464;11.070;2022-11-11T15:25:00;12.50;99.90
4518;DHT22;2271;49.464;11.070;2022-11-11T15:27:43;12.50;99.90
4518;DHT22;2271;49.464;11.070;2022-11-11T15:30:17;12.40;99.90
4518;DHT22;2271;49.464;11.070;2022-11-11T15:33:02;12.40;99.90
4518;DHT22;2271;49.464;11.070;2022-11-11T15:35:49;12.30;99.90
4518;DHT22;2271;49.464;11.070;2022-11-11T15:38:17;12.70;99.90
4518;DHT22;2271;49.464;11.070;2022-11-11T15:40:49;12.80;99.90
4518;DHT22;2271;49.464;11.070;2022-11-11T15:43:36;12.60;99.90
4518;DHT22;2271;49.464;11.070;2022-11-11T15:46:04;12.50;99.90
4518;DHT22;2271;49.464;11.070;2022-11-11T15:48:37;12.60;99.90
4518;DHT22;2271;49.464;11.070;2022-11-11T15:53:43;12.60;99.90
4518;DHT22;2271;49.464;11.070;2022-11-11T15:56:09;12.40;99.90
4518;DHT22;2271;49.464;11.070;2022-11-11T15:58:34;12.30;99.90
4518;DHT22;2271;49.464;11.070;2022-11-11T16:01:06;12.10;99.90
4518;DHT22;2271;49.464;11.070;2022-11-11T16:03:34;12.10;99.90
4518;DHT22;2271;49.464;11.070;2022-11-11T16:06:08;12.00;99.90
4518;DHT22;2271;49.464;11.070;2022-11-11T16:08:34;12.00;99.90
4518;DHT22;2271;49.464;11.070;2022-11-11T16:11:01;11.90;99.90
4518;DHT22;2271;49.464;11.070;2022-11-11T16:13:39;11.90;99.90
4518;DHT22;2271;49.464;11.070;2022-11-11T16:16:10;11.90;99.90
4518;DHT22;2271;49.464;11.070;2022-11-11T16:18:38;11.80;99.90
4518;DHT22;2271;49.464;11.070;2022-11-11T16:21:16;11.80;99.90
4518;DHT22;2271;49.464;11.070;2022-11-11T16:23:44;11.70;99.90
4518;DHT22;2271;49.464;11.070;2022-11-11T16:26:11;11.80;99.90
4518;DHT22;2271;49.464;11.070;2022-11-11T16:28:54;11.70;99.90
4518;DHT22;2271;49.464;11.070;2022-11-11T16:33:59;11.70;99.90
4518;DHT22;2271;49.464;11.070;2022-11-11T16:36:25;11.60;99.90
4518;DHT22;2271;49.464;11.070;2022-11-11T16:38:50;11.60;99.90
4518;DHT22;2271;49.464;11.070;2022-11-11T16:41:30;11.50;99.90
4518;DHT22;2271;49.464;11.070;2022-11-11T16:43:59;11.50;99.90
4518;DHT22;2271;49.464;11.070;2022-11-11T16:46:37;11.50;99.90
4518;DHT22;2271;49.464;11.070;2022-11-11T16:51:43;11.40;99.90
4518;DHT22;2271;49.464;11.070;2022-11-11T16:54:30;11.40;99.90
4518;DHT22;2271;49.464;11.070;2022-11-11T16:56:59;11.40;99.90
4518;DHT22;2271;49.464;11.070;2022-11-11T17:02:16;11.40;99.90
4518;DHT22;2271;49.464;11.070;2022-11-11T17:07:28;11.40;99.90
4518;DHT22;2271;49.464;11.070;2022-11-11T17:12:35;11.30;99.90
4518;DHT22;2271;49.464;11.070;2022-11-11T17:15:06;11.30;99.90
4518;DHT22;2271;49.464;11.070;2022-11-11T17:17:33;11.20;99.90
4518;DHT22;2271;49.464;11.070;2022-11-11T17:20:07;11.20;99.90
4518;DHT22;2271;49.464;11.070;2022-11-11T17:22:33;11.30;99.90
4518;DHT22;2271;49.464;11.070;2022-11-11T17:24:59;11.20;99.90
4518;DHT22;2271;49.464;11.070;2022-11-11T17:27:28;11.20;99.90
4518;DHT22;2271;49.464;11.070;2022-11-11T17:29:54;11.20;99.90
4518;DHT22;2271;49.464;11.070;2022-11-11T17:32:20;11.20;99.90
4518;DHT22;2271;49.464;11.070;2022-11-11T17:34:45;11.20;99.90
4518;DHT22;2271;49.464;11.070;2022-11-11T17:37:11;11.20;99.90
4518;DHT22;2271;49.464;11.070;2022-11-11T17:39:37;11.20;99.90
4518;DHT22;2271;49.464;11.070;2022-11-11T17:42:08;11.10;99.90
4518;DHT22;2271;49.464;11.070;2022-11-11T17:44:33;11.10;99.90
4518;DHT22;2271;49.464;11.070;2022-11-11T17:46:59;11.10;99.90
4518;DHT22;2271;49.464;11.070;2022-11-11T17:49:24;11.00;99.90
4518;DHT22;2271;49.464;11.070;2022-11-11T17:51:50;11.00;99.90
4518;DHT22;2271;49.464;11.070;2022-11-11T17:54:16;11.00;99.90
4518;DHT22;2271;49.464;11.070;2022-11-11T17:56:41;10.90;99.90
4518;DHT22;2271;49.464;11.070;2022-11-11T17:59:09;10.90;99.90
4518;DHT22;2271;49.464;11.070;2022-11-11T18:01:34;10.80;99.90
4518;DHT22;2271;49.464;11.070;2022-11-11T18:04:00;10.80;99.90
4518;DHT22;2271;49.464;11.070;2022-11-11T18:06:29;10.80;99.90
4518;DHT22;2271;49.464;11.070;2022-11-11T18:08:55;10.80;99.90
4518;DHT22;2271;49.464;11.070;2022-11-11T18:11:20;10.70;99.90
4518;DHT22;2271;49.464;11.070;2022-11-11T18:13:46;10.60;99.90
4518;DHT22;2271;49.464;11.070;2022-11-11T18:16:16;10.60;99.90
4518;DHT22;2271;49.464;11.070;2022-11-11T18:18:42;10.60;99.90
4518;DHT22;2271;49.464;11.070;2022-11-11T18:21:07;10.60;99.90
4518;DHT22;2271;49.464;11.070;2022-11-11T18:23:35;10.60;99.90
4518;DHT22;2271;49.464;11.070;2022-11-11T18:26:01;10.50;99.90
4518;DHT22;2271;49.464;11.070;2022-11-11T18:28:32;10.40;99.90
4518;DHT22;2271;49.464;11.070;2022-11-11T18:31:08;10.40;99.90
4518;DHT22;2271;49.464;11.070;2022-11-11T18:33:35;10.40;99.90
4518;DHT22;2271;49.464;11.070;2022-11-11T18:36:08;10.30;99.90
4518;DHT22;2271;49.464;11.070;2022-11-11T18:38:34;10.30;99.90
4518;DHT22;2271;49.464;11.070;2022-11-11T18:41:08;10.20;99.90
4518;DHT22;2271;49.464;11.070;2022-11-11T18:43:35;10.20;99.90
4518;DHT22;2271;49.464;11.070;2022-11-11T18:46:03;10.20;99.90
4518;DHT22;2271;49.464;11.070;2022-11-11T18:48:28;10.10;99.90
4518;DHT22;2271;49.464;11.070;2022-11-11T18:50:54;10.10;99.90
4518;DHT22;2271;49.464;11.070;2022-11-11T18:53:20;10.00;99.90